Time;durP1;ratioP1;P1;durP2;ratioP2;P2;SDS_P1;SDS_P2;PMS_P1;PMS_P2;Temp;Humidity;BMP_temperature;BMP_pressure;BME280_temperature;BME280_humidity;BME280_pressure;Samples;Min_cycle;Max_cycle;Signal;HPM_P1;HPM_P2
2022/06/09 00:03:33;;;;;;;4.50;1.58;;;;;;;15.32;64.71;99243.00;10511167;28;20633;-63
2022/06/09 00:08:37;;;;;;;4.13;1.67;;;;;;;15.36;64.54;99239.13;10511278;28;20084;-62
2022/06/09 00:13:40;;;;;;;5.93;1.67;;;;;;;15.38;64.60;99245.09;10510660;28;20036;-62
2022/06/09 00:18:42;;;;;;;4.30;1.67;;;;;;;15.41;64.32;99255.34;10511407;28;20084;-62
2022/06/09 00:23:44;;;;;;;5.13;1.65;;;;;;;15.41;64.54;99250.06;10510422;28;20059;-63
2022/06/09 00:28:46;;;;;;;9.68;2.13;;;;;;;15.41;64.23;99248.28;10509980;28;20054;-63
2022/06/09 00:33:48;;;;;;;6.28;1.65;;;;;;;15.36;64.24;99258.41;10510425;28;20059;-62
2022/06/09 00:38:49;;;;;;;5.45;1.75;;;;;;;15.36;64.51;99258.41;10509954;28;20090;-63
2022/06/09 00:43:51;;;;;;;4.82;1.70;;;;;;;15.35;64.55;99253.25;10509476;28;20549;-63
2022/06/09 00:48:57;;;;;;;8.75;1.80;;;;;;;15.38;64.42;99256.47;10509856;28;20357;-63
2022/06/09 00:54:12;;;;;;;5.43;2.10;;;;;;;15.40;64.29;99280.03;10507718;28;20078;-63
2022/06/09 00:59:17;;;;;;;7.10;1.88;;;;;;;15.36;64.33;99278.66;10509314;28;20416;-63
2022/06/09 01:04:22;;;;;;;4.55;1.80;;;;;;;15.25;64.74;99289.28;10503389;28;20396;-63
2022/06/09 01:09:26;;;;;;;11.13;2.20;;;;;;;15.22;64.65;99289.59;10508725;28;20139;-62
2022/06/09 01:14:32;;;;;;;5.00;1.70;;;;;;;15.25;64.49;99289.28;10508923;28;20063;-63
2022/06/09 01:20:03;;;;;;;7.03;2.20;;;;;;;15.20;64.36;99288.88;10507948;28;20416;-63
2022/06/09 01:25:20;;;;;;;4.97;1.90;;;;;;;15.14;64.62;99290.25;10505461;28;20749;-63
2022/06/09 01:30:38;;;;;;;6.00;1.92;;;;;;;15.14;64.58;99292.06;10508340;28;20048;-63
2022/06/09 01:35:55;;;;;;;8.98;2.20;;;;;;;15.03;64.95;99297.44;10507617;28;20062;-62
2022/06/09 01:40:57;;;;;;;5.72;2.10;;;;;;;14.94;64.71;99298.25;10508010;28;20682;-62
2022/06/09 01:46:08;;;;;;;7.85;2.00;;;;;;;14.75;65.18;99292.91;10505070;28;20493;-63
2022/06/09 01:51:14;;;;;;;6.03;2.13;;;;;;;14.66;65.29;99294.53;10507383;28;20048;-63
2022/06/09 01:56:23;;;;;;;7.00;1.90;;;;;;;14.54;65.68;99301.72;10507395;28;20051;-63
2022/06/09 02:01:33;;;;;;;6.47;2.10;;;;;;;14.45;65.71;99294.56;10509118;28;20499;-63
2022/06/09 02:06:36;;;;;;;9.75;2.40;;;;;;;14.39;65.67;99296.91;10515761;28;20071;-63
2022/06/09 02:11:54;;;;;;;5.65;1.90;;;;;;;14.19;66.69;99293.31;10514763;28;20044;-63
2022/06/09 02:16:57;;;;;;;8.43;2.30;;;;;;;14.21;66.16;99290.53;10515168;28;20050;-63
2022/06/09 02:21:59;;;;;;;9.60;2.10;;;;;;;14.19;66.02;99298.56;10513801;28;20052;-63
2022/06/09 02:27:01;;;;;;;8.02;2.00;;;;;;;14.04;66.29;99292.00;10515182;28;20294;-63
2022/06/09 02:32:03;;;;;;;8.38;2.20;;;;;;;13.92;66.63;99295.66;10514745;28;20050;-62
2022/06/09 02:37:05;;;;;;;8.23;2.10;;;;;;;13.75;67.09;99297.03;10514670;28;20101;-62
2022/06/09 02:42:08;;;;;;;8.93;2.55;;;;;;;13.69;67.24;99297.56;10513556;28;20060;-64
2022/06/09 02:47:10;;;;;;;8.85;2.33;;;;;;;13.62;67.18;99308.69;10514630;28;20044;-63
2022/06/09 02:52:12;;;;;;;6.78;2.20;;;;;;;13.52;67.65;99310.38;10513554;28;20170;-62
2022/06/09 02:57:14;;;;;;;8.15;2.25;;;;;;;13.53;67.50;99319.94;10515173;28;20048;-63
2022/06/09 03:02:15;;;;;;;7.47;2.42;;;;;;;13.53;67.48;99328.69;10517389;28;20138;-62
2022/06/09 03:07:17;;;;;;;8.70;2.30;;;;;;;13.62;67.39;99332.31;10517010;28;20268;-63
2022/06/09 03:12:20;;;;;;;9.77;2.10;;;;;;;13.60;67.07;99345.59;10512597;28;20056;-63
2022/06/09 03:17:21;;;;;;;11.50;2.08;;;;;;;13.64;66.73;99341.75;10513125;28;20136;-63
2022/06/09 03:22:23;;;;;;;5.22;2.05;;;;;;;13.57;66.77;99345.00;10513443;28;20101;-63
2022/06/09 03:27:25;;;;;;;8.40;2.75;;;;;;;13.55;66.92;99333.78;10513427;28;20292;-63
2022/06/09 03:32:27;;;;;;;8.73;2.55;;;;;;;13.57;66.60;99350.28;10514360;28;20155;-63
2022/06/09 03:37:29;;;;;;;6.25;2.00;;;;;;;13.54;66.29;99348.72;10513870;28;20051;-63
2022/06/09 03:42:31;;;;;;;6.65;1.90;;;;;;;13.58;66.25;99359.81;10511433;28;20514;-62
2022/06/09 03:47:33;;;;;;;7.53;2.13;;;;;;;13.61;65.69;99364.81;10513561;28;20455;-63
2022/06/09 03:52:34;;;;;;;11.73;2.22;;;;;;;13.54;65.82;99374.16;10513136;28;20078;-63
2022/06/09 03:57:36;;;;;;;8.27;2.30;;;;;;;13.62;65.28;99390.13;10512912;28;20702;-63
2022/06/09 04:02:38;;;;;;;4.85;2.20;;;;;;;13.89;65.20;99397.56;10510035;28;20052;-63
2022/06/09 04:07:41;;;;;;;5.43;2.00;;;;;;;14.14;64.90;99405.97;10513090;28;20048;-63
2022/06/09 04:12:43;;;;;;;10.15;2.90;;;;;;;14.27;64.67;99406.59;10509901;28;20069;-64
2022/06/09 04:17:46;;;;;;;12.68;2.97;;;;;;;14.38;64.35;99410.97;10512461;28;20409;-64
2022/06/09 04:22:47;;;;;;;7.80;2.10;;;;;;;14.48;64.10;99414.50;10510157;28;20540;-64
2022/06/09 04:27:50;;;;;;;6.38;2.00;;;;;;;14.49;63.56;99414.41;10512735;28;20051;-62
2022/06/09 04:32:53;;;;;;;8.55;1.90;;;;;;;14.45;63.67;99418.22;10511880;28;20522;-62
2022/06/09 04:38:01;;;;;;;10.40;2.33;;;;;;;14.34;63.87;99423.56;10510471;28;20782;-64
2022/06/09 04:43:07;;;;;;;8.65;2.50;;;;;;;14.47;63.68;99439.16;10511533;28;20051;-63
2022/06/09 04:48:10;;;;;;;7.47;2.75;;;;;;;14.50;64.04;99436.28;10510390;28;20052;-63
2022/06/09 04:53:12;;;;;;;7.60;2.00;;;;;;;14.58;63.30;99439.94;10510340;28;20717;-63
2022/06/09 04:58:13;;;;;;;10.02;2.17;;;;;;;14.61;63.39;99444.13;10508639;28;20139;-64
2022/06/09 05:03:15;;;;;;;8.90;2.30;;;;;;;14.80;62.98;99443.41;10510908;28;20866;-64
2022/06/09 05:08:18;;;;;;;11.02;2.30;;;;;;;14.98;62.21;99453.19;10509834;28;20052;-62
2022/06/09 05:13:20;;;;;;;8.32;2.13;;;;;;;15.25;61.24;99461.38;10509308;28;20135;-63
2022/06/09 05:18:26;;;;;;;8.05;2.13;;;;;;;15.91;59.69;99470.50;10509654;28;20504;-63
2022/06/09 05:23:29;;;;;;;7.28;1.90;;;;;;;15.93;59.74;99471.19;10503577;28;20044;-64
2022/06/09 05:28:32;;;;;;;6.82;2.03;;;;;;;17.46;56.24;99468.38;10496762;28;20060;-64
2022/06/09 05:33:34;;;;;;;9.77;2.17;;;;;;;18.41;53.72;99460.81;10486941;28;20048;-63
2022/06/09 05:49:30;;;;;;;10.48;1.88;;;;;;;17.57;54.74;99476.09;10464923;28;20069;-64
2022/06/09 05:54:32;;;;;;;9.98;2.60;;;;;;;17.27;55.28;99462.28;10491723;28;20488;-64
2022/06/09 05:59:36;;;;;;;7.20;2.03;;;;;;;17.75;54.63;99473.53;10487774;28;20658;-64
2022/06/09 06:04:38;;;;;;;7.25;2.35;;;;;;;18.13;53.60;99478.56;10486000;28;20071;-64
2022/06/09 06:09:40;;;;;;;12.30;2.42;;;;;;;18.83;51.98;99480.34;10484857;28;20050;-64
2022/06/09 06:14:42;;;;;;;9.43;1.98;;;;;;;20.07;49.86;99485.97;10485926;28;20152;-64
2022/06/09 06:19:44;;;;;;;9.10;2.17;;;;;;;20.08;49.35;99503.56;10498790;28;20060;-64
2022/06/09 06:24:46;;;;;;;6.88;1.88;;;;;;;19.06;51.18;99515.97;10497593;28;20209;-64
2022/06/09 06:29:48;;;;;;;10.60;2.00;;;;;;;18.27;52.32;99527.53;10492776;28;20120;-63
2022/06/09 06:34:49;;;;;;;6.18;2.08;;;;;;;17.57;54.35;99544.84;10502955;28;20125;-64
2022/06/09 06:39:51;;;;;;;6.32;1.80;;;;;;;17.33;54.26;99552.44;10497099;28;20109;-63
2022/06/09 06:44:53;;;;;;;7.57;2.58;;;;;;;17.28;55.14;99556.47;10511531;28;20051;-63
2022/06/09 06:49:55;;;;;;;10.02;1.90;;;;;;;17.44;55.27;99570.81;10511499;28;20137;-63
2022/06/09 06:54:57;;;;;;;10.80;2.03;;;;;;;17.50;55.21;99578.16;10512862;28;20135;-63
2022/06/09 07:00:00;;;;;;;7.57;1.80;;;;;;;17.68;54.84;99581.72;10508812;28;20499;-63
2022/06/09 07:05:02;;;;;;;7.47;2.30;;;;;;;17.74;54.22;99591.72;10507775;28;20226;-63
2022/06/09 07:10:05;;;;;;;7.43;1.88;;;;;;;17.61;53.87;99596.47;10502297;28;20048;-65
2022/06/09 07:15:09;;;;;;;9.30;2.10;;;;;;;17.46;54.48;99610.31;10508344;28;20048;-63
2022/06/09 07:20:12;;;;;;;7.97;1.88;;;;;;;17.34;54.88;99620.22;10509959;27;20469;-63
2022/06/09 07:25:19;;;;;;;5.65;1.90;;;;;;;17.21;55.11;99617.00;10508608;28;20547;-64
2022/06/09 07:30:24;;;;;;;11.32;2.05;;;;;;;17.40;55.34;99616.16;10510737;28;20087;-63
2022/06/09 07:35:30;;;;;;;8.80;2.10;;;;;;;17.52;54.83;99630.88;10510665;28;20132;-64
2022/06/09 07:40:37;;;;;;;7.10;2.10;;;;;;;17.75;54.19;99622.44;10509016;28;20131;-64
2022/06/09 07:45:40;;;;;;;9.23;2.30;;;;;;;17.89;54.13;99622.97;10506686;28;20062;-63
2022/06/09 07:50:42;;;;;;;9.48;2.20;;;;;;;17.86;53.91;99634.69;10507595;28;20052;-63
2022/06/09 07:55:44;;;;;;;10.43;2.05;;;;;;;17.87;53.48;99639.00;10509615;28;20134;-63
2022/06/09 08:00:46;;;;;;;13.50;2.20;;;;;;;17.61;54.04;99648.53;10505179;28;20056;-63
2022/06/09 08:05:49;;;;;;;9.18;2.60;;;;;;;17.37;54.89;99653.44;10509189;28;20123;-63
2022/06/09 08:11:09;;;;;;;;;;;;;;;17.09;55.75;99652.47;10505100;28;20055;-63
2022/06/09 08:16:11;;;;;;;6.72;1.88;;;;;;;17.64;54.59;99653.53;10495758;28;19996;-67
2022/06/09 08:21:12;;;;;;;6.70;1.88;;;;;;;17.91;54.58;99652.78;10498366;28;20443;-67
2022/06/09 08:26:33;;;;;;;6.68;2.35;;;;;;;18.27;53.90;99665.19;10497821;28;20039;-67
2022/06/09 08:31:35;;;;;;;8.02;2.00;;;;;;;18.61;54.11;99671.53;10505450;28;20389;-67
2022/06/09 08:36:38;;;;;;;7.30;1.92;;;;;;;18.88;53.49;99682.09;10500737;28;20434;-67
2022/06/09 08:41:58;;;;;;;7.90;2.00;;;;;;;19.29;51.89;99684.19;10505351;28;20288;-68
2022/06/09 08:47:00;;;;;;;7.45;2.10;;;;;;;19.79;50.96;99688.84;10509119;28;20163;-67
2022/06/09 08:52:06;;;;;;;6.45;1.90;;;;;;;20.12;49.42;99685.44;10502071;28;20044;-68
2022/06/09 08:57:21;;;;;;;5.47;1.90;;;;;;;19.99;48.95;99691.16;10486129;28;20537;-67
2022/06/09 09:02:42;;;;;;;5.90;1.83;;;;;;;19.88;49.35;99693.25;10504366;28;20139;-67
2022/06/09 09:07:48;;;;;;;7.50;1.90;;;;;;;19.94;49.62;99687.31;10504122;28;20043;-67
2022/06/09 09:13:12;;;;;;;9.32;2.08;;;;;;;20.50;48.05;99697.41;10504626;28;20131;-67
2022/06/09 09:18:35;;;;;;;7.30;2.38;;;;;;;21.89;44.56;99693.78;10506362;28;20155;-67
2022/06/09 09:24:04;;;;;;;7.03;2.00;;;;;;;21.75;44.74;99697.13;10500087;28;20052;-67
2022/06/09 09:29:19;;;;;;;9.68;2.35;;;;;;;20.80;46.44;99704.84;10506473;28;20393;-67
2022/06/09 09:34:37;;;;;;;7.55;2.20;;;;;;;21.59;44.52;99705.13;10500461;28;20523;-67
2022/06/09 09:39:45;;;;;;;6.70;1.90;;;;;;;22.17;44.11;99712.91;10505217;28;20399;-67
2022/06/09 09:45:04;;;;;;;5.90;2.00;;;;;;;22.04;43.86;99710.75;10497924;28;20071;-67
2022/06/09 09:50:36;;;;;;;4.60;1.80;;;;;;;23.11;41.83;99703.78;10500894;28;20109;-67
2022/06/09 09:55:49;;;;;;;8.63;2.00;;;;;;;24.04;40.85;99717.72;10497516;28;20482;-67
2022/06/09 10:00:57;;;;;;;9.75;2.38;;;;;;;23.92;39.53;99713.84;10495035;28;20146;-67
2022/06/09 10:11:56;;;;;;;;;;;;;;;20.39;46.18;99754.31;10504292;28;20091;-67
2022/06/09 10:17:37;;;;;;;5.35;1.85;;;;;;;20.03;45.93;99758.06;10504511;28;20586;-67
2022/06/09 10:23:02;;;;;;;5.68;1.70;;;;;;;20.05;46.06;99754.25;10500778;28;20048;-67
2022/06/09 10:28:30;;;;;;;8.30;2.00;;;;;;;20.35;46.12;99755.63;10503808;28;20048;-67
2022/06/09 10:33:40;;;;;;;7.70;2.20;;;;;;;20.65;46.14;99759.59;10503842;28;20729;-67
2022/06/09 10:38:47;;;;;;;5.88;2.08;;;;;;;20.98;46.29;99767.53;10501616;28;20321;-68
2022/06/09 10:43:57;;;;;;;6.35;2.22;;;;;;;21.30;44.63;99757.94;10502707;28;20128;-67
2022/06/09 11:00:13;;;;;;;6.45;2.30;;;;;;;22.17;43.49;99772.31;10504877;28;20048;-67
2022/06/09 11:05:20;;;;;;;7.35;2.10;;;;;;;22.71;42.12;99752.00;10502453;28;20155;-67
2022/06/09 11:10:54;;;;;;;6.00;2.10;;;;;;;22.96;42.07;99758.91;10506484;28;20048;-67
2022/06/09 11:16:09;;;;;;;8.00;2.05;;;;;;;23.01;42.10;99763.72;10505085;28;20452;-67
2022/06/09 11:21:15;;;;;;;7.28;2.17;;;;;;;23.32;40.66;99759.19;10502079;28;20136;-67
2022/06/09 11:26:33;;;;;;;7.35;2.08;;;;;;;22.96;40.87;99763.41;10508695;28;20605;-67
2022/06/09 11:31:56;;;;;;;6.40;2.25;;;;;;;23.11;40.56;99765.16;10504141;28;20059;-68
2022/06/09 11:37:09;;;;;;;5.60;1.95;;;;;;;23.74;39.06;99775.56;10506012;28;20127;-66
2022/06/09 11:42:29;;;;;;;6.95;2.33;;;;;;;23.68;39.24;99778.97;10511901;28;20096;-67
2022/06/09 11:47:33;;;;;;;7.13;2.30;;;;;;;23.57;39.07;99784.75;10512898;28;20052;-67
2022/06/09 11:52:46;;;;;;;5.18;2.13;;;;;;;22.94;40.08;99784.09;10509460;28;20048;-67
2022/06/09 11:57:50;;;;;;;5.70;2.15;;;;;;;22.50;41.28;99789.06;10509894;28;20500;-67
2022/06/09 12:03:13;;;;;;;6.78;2.30;;;;;;;21.25;41.76;99808.16;10508932;28;20498;-67
2022/06/09 12:08:24;;;;;;;5.60;2.00;;;;;;;20.36;44.40;99809.56;10502846;28;20051;-67
2022/06/09 12:13:34;;;;;;;5.82;1.88;;;;;;;20.04;45.47;99826.09;10504010;28;20626;-67
2022/06/09 12:19:05;;;;;;;7.05;2.10;;;;;;;19.74;45.50;99827.31;10504832;28;20160;-67
2022/06/09 12:24:29;;;;;;;7.80;1.98;;;;;;;19.75;45.10;99836.09;10507019;28;20060;-67
2022/06/09 12:30:04;;;;;;;8.13;2.10;;;;;;;19.98;44.53;99840.84;10502538;28;20044;-68
2022/06/09 12:35:25;;;;;;;5.57;2.22;;;;;;;20.43;43.62;99843.31;10506626;28;20171;-67
2022/06/09 12:40:36;;;;;;;5.78;2.05;;;;;;;21.17;42.49;99842.72;10505741;28;20144;-67
2022/06/09 12:45:39;;;;;;;5.28;1.77;;;;;;;21.78;41.60;99836.03;10511082;28;20036;-67
2022/06/09 12:50:45;;;;;;;8.52;2.17;;;;;;;22.30;39.79;99843.72;10500318;28;20248;-68
2022/06/09 12:55:54;;;;;;;7.13;2.40;;;;;;;22.23;40.30;99840.09;10495624;28;20060;-68
2022/06/09 13:01:00;;;;;;;7.75;2.40;;;;;;;22.03;41.42;99844.03;10508695;28;20056;-68
2022/06/09 13:06:23;;;;;;;8.85;2.45;;;;;;;22.31;41.49;99848.06;10507329;28;20400;-68
2022/06/09 13:17:07;;;;;;;7.57;2.42;;;;;;;22.66;40.47;99845.81;10507023;28;20430;-68
2022/06/09 13:22:14;;;;;;;6.63;2.38;;;;;;;22.26;41.05;99853.06;10503142;28;20085;-68
2022/06/09 13:27:21;;;;;;;9.95;2.60;;;;;;;22.29;41.01;99863.38;10500770;28;20145;-67
2022/06/09 13:32:22;;;;;;;8.55;2.60;;;;;;;22.32;41.04;99853.22;10500213;28;20052;-68
2022/06/09 13:37:44;;;;;;;6.90;2.40;;;;;;;22.51;40.16;99868.84;10489788;28;20044;-67
2022/06/09 13:42:58;;;;;;;5.72;2.10;;;;;;;22.24;40.52;99871.88;10504036;28;20593;-68
2022/06/09 13:48:26;;;;;;;7.80;2.35;;;;;;;22.05;40.54;99864.22;10501432;28;20417;-68
2022/06/09 13:53:37;;;;;;;8.70;2.70;;;;;;;22.21;40.78;99866.06;10502628;28;20575;-67
2022/06/09 13:58:39;;;;;;;9.30;2.25;;;;;;;22.02;41.28;99867.19;10504223;28;20145;-67
2022/06/09 14:03:46;;;;;;;9.07;2.03;;;;;;;22.16;40.56;99879.03;10498384;28;20299;-67
2022/06/09 14:08:51;;;;;;;7.47;1.95;;;;;;;21.99;40.77;99885.31;10505099;28;20606;-67
2022/06/09 14:13:55;;;;;;;6.80;2.38;;;;;;;22.06;41.45;99897.84;10501672;28;20143;-67
2022/06/09 14:18:57;;;;;;;6.60;1.88;;;;;;;22.46;39.99;99873.00;10506740;28;20055;-66
2022/06/09 14:24:06;;;;;;;5.97;1.70;;;;;;;22.36;38.30;99897.19;10505200;28;21072;-67
2022/06/09 14:29:10;;;;;;;5.20;1.60;;;;;;;22.50;38.49;99922.31;10498227;28;20059;-67
2022/06/09 14:34:14;;;;;;;4.43;1.80;;;;;;;22.29;38.13;99928.16;10506967;28;20167;-66
2022/06/09 14:39:18;;;;;;;5.68;1.80;;;;;;;22.00;38.93;99942.91;10499109;28;20059;-67
2022/06/09 14:44:20;;;;;;;4.68;1.80;;;;;;;21.52;40.15;99959.56;10505565;28;20127;-68
2022/06/09 14:49:22;;;;;;;6.65;1.98;;;;;;;21.20;40.58;99960.25;10505766;28;20155;-67
2022/06/09 14:54:24;;;;;;;4.57;1.70;;;;;;;21.16;41.18;99961.56;10505601;28;20056;-66
2022/06/09 14:59:26;;;;;;;6.82;1.77;;;;;;;21.19;40.99;99971.06;10512799;28;20047;-67
2022/06/09 15:04:28;;;;;;;6.95;2.08;;;;;;;21.43;40.91;99973.88;10510303;28;20532;-67
2022/06/09 15:09:29;;;;;;;4.85;1.65;;;;;;;21.44;40.48;99991.47;10513502;28;20051;-67
2022/06/09 15:14:31;;;;;;;6.28;2.05;;;;;;;21.13;40.28;99996.44;10514167;28;20135;-67
2022/06/09 15:19:37;;;;;;;5.28;1.95;;;;;;;21.11;41.29;100006.41;10508186;28;20056;-67
2022/06/09 15:24:39;;;;;;;5.88;1.75;;;;;;;21.25;40.51;100015.66;10512292;28;20044;-67
2022/06/09 15:29:41;;;;;;;3.92;1.63;;;;;;;21.09;40.55;100011.88;10509609;28;20058;-67
2022/06/09 15:34:43;;;;;;;4.80;1.55;;;;;;;21.05;41.35;100009.69;10512366;28;20123;-66
2022/06/09 15:39:45;;;;;;;6.82;1.75;;;;;;;21.09;41.42;100017.19;10506798;28;20056;-68
2022/06/09 15:44:46;;;;;;;6.13;2.03;;;;;;;21.16;41.57;100016.56;10512260;28;20537;-68
2022/06/09 15:49:48;;;;;;;6.25;1.92;;;;;;;21.22;41.31;100021.25;10513079;28;20095;-66
2022/06/09 15:54:50;;;;;;;6.30;1.73;;;;;;;21.26;41.64;100019.97;10512161;28;20080;-68
2022/06/09 15:59:52;;;;;;;8.80;2.30;;;;;;;20.99;42.29;100020.94;10509724;28;20074;-68
2022/06/09 16:04:53;;;;;;;6.72;2.10;;;;;;;21.11;42.20;100029.53;10509538;28;20043;-69
2022/06/09 16:09:55;;;;;;;6.72;1.90;;;;;;;21.20;41.89;100032.06;10509090;28;20048;-69
2022/06/09 16:14:57;;;;;;;5.78;2.17;;;;;;;20.86;42.69;100037.34;10510357;28;20082;-69
2022/06/09 16:19:59;;;;;;;5.55;1.88;;;;;;;20.69;43.02;100037.34;10505861;28;20560;-69
2022/06/09 16:25:00;;;;;;;5.63;2.00;;;;;;;20.55;42.77;100037.84;10506791;28;20105;-69
2022/06/09 16:30:05;;;;;;;7.45;2.10;;;;;;;20.40;43.22;100039.38;10503936;28;20048;-69
2022/06/09 16:35:08;;;;;;;5.85;1.98;;;;;;;20.26;44.29;100038.06;10503651;28;20552;-69
2022/06/09 16:40:14;;;;;;;5.53;1.95;;;;;;;20.10;44.29;100048.50;10502589;28;20044;-70
2022/06/09 16:45:15;;;;;;;6.00;1.75;;;;;;;19.99;44.50;100048.75;10505432;28;20305;-70
2022/06/09 16:50:18;;;;;;;10.20;2.35;;;;;;;20.02;44.89;100051.09;10506248;28;20056;-70
2022/06/09 16:55:20;;;;;;;6.63;1.90;;;;;;;20.26;44.85;100041.56;10499989;28;20487;-70
2022/06/09 17:00:27;;;;;;;6.25;2.00;;;;;;;20.47;44.40;100059.03;10505433;28;20139;-70
2022/06/09 17:05:33;;;;;;;5.32;2.00;;;;;;;20.88;44.02;100059.28;10504603;28;20044;-70
2022/06/09 17:10:38;;;;;;;7.95;2.65;;;;;;;21.04;43.21;100051.41;10497339;28;20062;-70
2022/06/09 17:15:41;;;;;;;7.90;2.05;;;;;;;20.95;43.51;100052.34;10505027;28;20048;-70
2022/06/09 17:20:44;;;;;;;5.40;1.73;;;;;;;21.02;43.52;100061.38;10507998;28;20547;-70
2022/06/09 17:25:45;;;;;;;5.88;2.00;;;;;;;20.98;44.30;100065.34;10504946;28;20123;-70
2022/06/09 17:30:48;;;;;;;7.00;2.08;;;;;;;20.93;44.60;100066.75;10506234;28;20123;-70
2022/06/09 17:35:50;;;;;;;7.32;2.00;;;;;;;20.78;44.23;100081.63;10498232;28;20048;-69
2022/06/09 17:40:52;;;;;;;7.18;2.03;;;;;;;20.66;43.82;100086.31;10499001;28;20207;-69
2022/06/09 17:45:54;;;;;;;6.38;2.08;;;;;;;20.57;44.53;100089.00;10502639;28;20080;-69
2022/06/09 17:50:56;;;;;;;5.47;1.83;;;;;;;20.50;45.15;100094.09;10500403;28;20060;-69
2022/06/09 17:55:58;;;;;;;6.85;2.20;;;;;;;20.23;45.93;100096.81;10492366;28;20952;-68
2022/06/09 18:01:01;;;;;;;5.35;2.00;;;;;;;20.14;46.16;100108.31;10490464;28;20066;-69
2022/06/09 18:06:06;;;;;;;6.15;2.00;;;;;;;20.11;46.90;100113.94;10488266;28;20543;-69
2022/06/09 18:11:17;;;;;;;9.93;2.28;;;;;;;20.02;47.12;100130.72;10490224;28;20044;-67
2022/06/09 18:16:19;;;;;;;5.95;2.20;;;;;;;19.89;47.66;100133.72;10492478;28;20471;-68
2022/06/09 18:21:23;;;;;;;6.20;2.22;;;;;;;19.71;47.96;100138.09;10489168;28;20066;-68
2022/06/09 18:26:25;;;;;;;5.45;1.90;;;;;;;19.45;48.25;100143.19;10484834;28;20291;-67
2022/06/09 18:31:27;;;;;;;5.18;2.15;;;;;;;19.35;48.19;100155.63;10495835;28;20055;-68
2022/06/09 18:36:30;;;;;;;4.15;1.48;;;;;;;19.22;47.89;100163.03;10506756;28;20517;-68
2022/06/09 18:41:32;;;;;;;4.75;1.90;;;;;;;19.09;47.87;100162.50;10506892;28;20150;-68
2022/06/09 18:46:34;;;;;;;6.53;1.73;;;;;;;18.97;47.83;100168.03;10507925;28;20369;-67
2022/06/09 18:51:36;;;;;;;4.32;1.60;;;;;;;18.79;47.86;100175.81;10505167;28;20518;-68
2022/06/09 18:56:37;;;;;;;6.30;1.73;;;;;;;18.65;47.91;100178.88;10508573;28;20101;-68
2022/06/09 19:01:39;;;;;;;5.60;1.80;;;;;;;18.53;48.33;100185.25;10507963;28;20148;-65
2022/06/09 19:06:41;;;;;;;11.38;1.77;;;;;;;18.39;48.69;100183.84;10512474;28;20070;-64
2022/06/09 19:11:43;;;;;;;6.20;1.77;;;;;;;18.21;49.29;100189.91;10510734;28;20688;-64
2022/06/09 19:16:44;;;;;;;3.78;1.70;;;;;;;18.08;49.81;100199.84;10511454;28;20565;-65
2022/06/09 19:21:46;;;;;;;5.22;2.00;;;;;;;17.92;50.40;100200.34;10510935;28;20408;-63
2022/06/09 19:26:48;;;;;;;4.95;2.00;;;;;;;17.75;51.23;100209.72;10511025;28;20541;-63
2022/06/09 19:31:50;;;;;;;6.15;2.92;;;;;;;17.54;51.72;100216.84;10508109;28;20395;-64
2022/06/09 19:36:51;;;;;;;4.45;2.33;;;;;;;17.32;53.04;100214.28;10511965;28;20154;-63
2022/06/09 19:41:54;;;;;;;5.68;2.40;;;;;;;17.12;53.68;100222.97;10510876;28;20050;-64
2022/06/09 19:46:56;;;;;;;6.07;2.85;;;;;;;16.86;54.64;100242.75;10512348;28;20131;-63
2022/06/09 19:51:57;;;;;;;6.13;2.17;;;;;;;16.64;55.14;100250.75;10511861;28;20162;-63
2022/06/09 19:56:59;;;;;;;6.07;2.53;;;;;;;16.51;55.39;100264.06;10507371;28;20040;-64
2022/06/09 20:02:01;;;;;;;5.32;2.35;;;;;;;16.38;55.87;100271.25;10510847;28;20139;-63
2022/06/09 20:07:03;;;;;;;6.68;2.55;;;;;;;16.26;56.24;100271.38;10510148;28;20519;-64
2022/06/09 20:12:05;;;;;;;8.20;2.50;;;;;;;16.08;56.64;100274.47;10512228;28;20575;-64
2022/06/09 20:17:17;;;;;;;6.63;2.45;;;;;;;15.94;57.60;100298.41;10511586;28;20135;-64
2022/06/09 20:22:19;;;;;;;6.53;2.45;;;;;;;15.84;57.64;100305.34;10510760;28;20056;-63
2022/06/09 20:27:26;;;;;;;5.40;2.60;;;;;;;15.67;58.04;100308.44;10510681;28;20044;-65
2022/06/09 20:32:27;;;;;;;7.53;2.60;;;;;;;15.51;58.32;100315.78;10511598;28;20591;-64
2022/06/09 20:37:29;;;;;;;7.03;2.67;;;;;;;15.41;58.74;100314.75;10509179;28;20044;-64
2022/06/09 20:42:31;;;;;;;6.05;2.67;;;;;;;15.29;58.97;100327.03;10510803;28;20484;-63
2022/06/09 20:47:33;;;;;;;6.18;2.88;;;;;;;15.17;59.34;100337.63;10509321;28;20056;-64
2022/06/09 20:52:37;;;;;;;5.35;2.53;;;;;;;15.05;59.70;100338.50;10509373;28;20056;-64
2022/06/09 20:57:39;;;;;;;6.95;3.05;;;;;;;14.97;60.09;100346.94;10509305;28;20878;-63
2022/06/09 21:02:40;;;;;;;6.55;2.70;;;;;;;14.88;60.24;100346.78;10510080;28;20139;-64
2022/06/09 21:07:43;;;;;;;6.53;3.00;;;;;;;14.72;60.42;100354.03;10507478;28;20051;-64
2022/06/09 21:18:10;;;;;;;;;;;;;;;14.22;61.80;100358.38;10509128;28;20062;-64
2022/06/09 21:23:12;;;;;;;4.80;2.92;;;;;;;14.46;60.99;100355.84;10508751;28;20325;-63
2022/06/09 21:28:14;;;;;;;7.85;4.30;;;;;;;14.34;61.25;100361.94;10507437;28;20040;-65
2022/06/09 21:33:16;;;;;;;6.05;3.50;;;;;;;14.05;61.95;100361.28;10510247;28;20419;-64
2022/06/09 21:38:19;;;;;;;6.40;2.75;;;;;;;14.09;62.15;100368.03;10508139;28;20040;-65
2022/06/09 21:43:20;;;;;;;6.88;3.22;;;;;;;14.24;61.80;100374.03;10508472;28;20411;-63
2022/06/09 21:48:22;;;;;;;8.63;3.85;;;;;;;14.16;61.70;100376.34;10505828;28;20210;-65
2022/06/09 21:53:24;;;;;;;7.32;3.45;;;;;;;14.00;61.89;100387.06;10508488;28;20490;-64
2022/06/09 21:58:31;;;;;;;7.40;4.82;;;;;;;13.98;62.07;100396.84;10506827;28;20139;-64
2022/06/09 22:03:33;;;;;;;6.78;3.97;;;;;;;13.87;62.10;100395.84;10508041;28;20143;-64
2022/06/09 22:08:35;;;;;;;6.43;3.85;;;;;;;13.71;62.50;100399.50;10506831;28;20047;-65
2022/06/09 22:13:37;;;;;;;7.78;3.47;;;;;;;13.66;62.86;100400.72;10507006;28;20036;-64
2022/06/09 22:18:39;;;;;;;8.02;3.85;;;;;;;13.66;62.65;100396.31;10507578;28;20247;-64
2022/06/09 22:23:41;;;;;;;10.50;3.80;;;;;;;13.60;62.89;100401.13;10500542;28;20166;-65
2022/06/09 22:28:42;;;;;;;5.85;3.50;;;;;;;13.59;62.81;100413.44;10497101;28;20050;-64
2022/06/09 22:33:44;;;;;;;7.85;3.60;;;;;;;13.52;62.89;100421.78;10505596;28;20054;-64
2022/06/09 22:38:46;;;;;;;4.88;3.28;;;;;;;13.46;62.86;100416.94;10503129;28;20143;-64
2022/06/09 22:43:47;;;;;;;7.18;3.70;;;;;;;13.44;62.65;100426.69;10505180;28;20052;-64
2022/06/09 22:48:49;;;;;;;6.43;3.83;;;;;;;13.36;63.15;100428.94;10504379;28;20058;-64
2022/06/09 22:53:51;;;;;;;5.20;3.78;;;;;;;13.18;63.30;100433.56;10505456;28;20132;-65
2022/06/09 22:58:53;;;;;;;7.10;3.78;;;;;;;13.19;63.61;100432.63;10502681;28;20135;-64
2022/06/09 23:03:55;;;;;;;6.72;3.67;;;;;;;13.13;63.38;100430.38;10504625;28;20059;-64
2022/06/09 23:08:57;;;;;;;9.32;3.65;;;;;;;13.02;63.53;100435.47;10502629;28;20048;-64
2022/06/09 23:13:59;;;;;;;6.90;3.45;;;;;;;12.94;63.73;100438.53;10504523;28;20055;-64
2022/06/09 23:19:01;;;;;;;6.85;3.90;;;;;;;12.94;63.39;100456.91;10505005;28;20130;-64
2022/06/09 23:24:03;;;;;;;8.75;5.45;;;;;;;12.79;63.17;100459.63;10511123;28;20432;-64
2022/06/09 23:29:04;;;;;;;4.05;2.90;;;;;;;12.67;63.37;100455.13;10506753;28;20080;-64
2022/06/09 23:34:06;;;;;;;7.13;4.05;;;;;;;12.69;63.04;100458.50;10509531;28;20054;-65
2022/06/09 23:39:09;;;;;;;6.57;3.58;;;;;;;12.67;63.07;100458.59;10511267;28;20154;-64
2022/06/09 23:44:11;;;;;;;8.48;4.07;;;;;;;12.64;63.10;100460.56;10510565;28;20146;-64
2022/06/09 23:49:13;;;;;;;7.60;4.45;;;;;;;12.61;63.39;100464.22;10510941;28;20131;-64
2022/06/09 23:54:14;;;;;;;9.25;4.25;;;;;;;12.56;63.62;100468.88;10510512;28;20065;-65
2022/06/09 23:59:16;;;;;;;6.72;4.13;;;;;;;12.52;63.36;100475.25;10508346;28;20155;-64
